Lonetree, Wyoming
Current Conditions -  °F | °C
As of 11:15 AM on Friday 28 Nov 2014 (Local Time) from KFBR Reporting Station
Clear Clear  
Wind Chill: 55°   Ceiling: Unl
Heat Index: 55°   Visibility: 10mi
Dew Point: 15°   Wind: 23mph
Humidity: 20%   Direction: 260°W
Pressure: 30.04"   Gusts: 29mph
Location:  41.0297°N, 110.145°W
Report Text: KFBR 281815Z AUTO 26020G25KT 10SM CLR 13/M09 A3004 RMK AO2 T01291095
Loading
Personal Weather Stations






























Interactive Weather Map New forecast layout! Learn more

10-Day Weather Forecast

Advertisements
Track Severe Weather on mobile